createdAt,value
2018-06-28T00:01:52.484Z,21.97
2018-06-28T00:04:21.684Z,37.60
2018-06-28T00:06:51.405Z,28.73
2018-06-28T00:09:20.582Z,19.97
2018-06-28T00:11:49.840Z,22.77
2018-06-28T00:14:18.992Z,21.97
2018-06-28T00:16:48.204Z,24.70
2018-06-28T00:19:17.378Z,23.50
2018-06-28T00:21:46.594Z,24.80
2018-06-28T00:24:15.809Z,44.83
2018-06-28T00:26:44.919Z,23.20
2018-06-28T00:29:14.166Z,26.33
2018-06-28T00:31:43.446Z,22.97
2018-06-28T00:34:12.277Z,28.17
2018-06-28T00:36:41.024Z,44.83
2018-06-28T00:39:10.966Z,59.07
2018-06-28T00:41:40.266Z,23.53
2018-06-28T00:44:09.540Z,21.37
2018-06-28T00:46:38.249Z,23.00
2018-06-28T00:49:07.447Z,28.33
2018-06-28T00:51:36.171Z,22.97
2018-06-28T00:54:04.945Z,43.20
2018-06-28T00:56:33.663Z,18.20
2018-06-28T00:59:02.391Z,28.00
2018-06-28T01:01:31.513Z,25.90
2018-06-28T01:04:00.702Z,21.00
2018-06-28T01:06:29.993Z,28.83
2018-06-28T01:08:59.188Z,30.50
2018-06-28T01:11:28.398Z,20.70
2018-06-28T01:13:57.609Z,30.73
2018-06-28T01:16:26.582Z,32.73
2018-06-28T01:18:55.629Z,22.93
2018-06-28T01:21:24.325Z,25.27
2018-06-28T01:23:53.029Z,24.40
2018-06-28T01:26:21.765Z,24.30
2018-06-28T01:28:50.589Z,17.97
2018-06-28T01:31:19.715Z,18.27
2018-06-28T01:33:49.026Z,22.70
2018-06-28T01:36:18.226Z,23.10
2018-06-28T01:38:47.446Z,25.80
2018-06-28T01:41:16.532Z,29.90
2018-06-28T01:43:46.466Z,20.77
2018-06-28T01:46:16.207Z,19.10
2018-06-28T01:48:45.683Z,24.53
2018-06-28T01:51:14.942Z,30.27
2018-06-28T01:53:44.159Z,18.20
2018-06-28T01:56:13.345Z,30.87
2018-06-28T01:58:42.546Z,37.10
2018-06-28T02:01:11.739Z,33.10
2018-06-28T02:03:41.223Z,33.47
2018-06-28T02:06:10.241Z,26.40
2018-06-28T02:08:39.229Z,23.97
2018-06-28T02:11:08.429Z,26.10
2018-06-28T02:13:37.642Z,26.80
2018-06-28T02:16:06.871Z,25.67
2018-06-28T02:18:36.047Z,43.43
2018-06-28T02:21:05.347Z,85.33
2018-06-28T02:23:34.572Z,51.00
2018-06-28T02:26:03.746Z,48.13
2018-06-28T02:28:32.861Z,32.07
2018-06-28T02:31:02.117Z,37.03
2018-06-28T02:33:31.030Z,31.77
2018-06-28T02:35:59.742Z,40.00
2018-06-28T02:38:28.897Z,33.37
2018-06-28T02:40:58.102Z,43.13
2018-06-28T02:43:27.398Z,41.00
2018-06-28T02:45:56.695Z,65.53
2018-06-28T02:48:25.611Z,61.90
2018-06-28T02:50:54.622Z,50.33
2018-06-28T02:53:23.687Z,47.87
2018-06-28T02:55:52.687Z,68.80
2018-06-28T02:58:21.909Z,60.03
2018-06-28T03:00:50.875Z,52.60
2018-06-28T03:03:20.177Z,80.97
2018-06-28T03:05:49.081Z,131.70
2018-06-28T03:08:18.271Z,78.60
2018-06-28T03:10:47.261Z,132.63
2018-06-28T03:13:16.570Z,56.73
2018-06-28T03:15:45.738Z,60.03
2018-06-28T03:18:14.933Z,50.13
2018-06-28T03:20:44.177Z,64.60
2018-06-28T03:23:13.232Z,59.43
2018-06-28T03:25:42.462Z,44.47
2018-06-28T03:28:11.621Z,60.60
2018-06-28T03:30:40.851Z,55.43
2018-06-28T03:33:10.031Z,48.47
2018-06-28T03:35:39.221Z,50.03
2018-06-28T03:38:08.562Z,49.90
2018-06-28T03:40:37.829Z,52.63
2018-06-28T03:43:07.046Z,55.17
2018-06-28T03:45:36.238Z,56.27
2018-06-28T03:48:05.430Z,46.63
2018-06-28T03:50:34.452Z,74.00
2018-06-28T03:53:03.614Z,52.23
2018-06-28T03:55:32.815Z,58.50
2018-06-28T03:58:02.384Z,53.80
2018-06-28T04:00:31.540Z,53.30
2018-06-28T04:03:00.750Z,46.43
2018-06-28T04:05:29.450Z,56.60
2018-06-28T04:07:58.493Z,58.73
2018-06-28T04:10:27.554Z,48.20
2018-06-28T04:12:56.691Z,51.07
2018-06-28T04:15:25.726Z,54.87
2018-06-28T04:17:54.929Z,59.70
2018-06-28T04:20:24.106Z,50.13
2018-06-28T04:22:53.283Z,52.03
2018-06-28T04:25:22.492Z,43.73
2018-06-28T04:27:51.689Z,52.07
2018-06-28T04:30:20.919Z,48.40
2018-06-28T04:32:50.098Z,52.97
2018-06-28T04:35:19.561Z,44.60
2018-06-28T04:37:48.778Z,43.00
2018-06-28T04:40:17.974Z,46.23
2018-06-28T04:42:47.274Z,47.97
2018-06-28T04:45:16.578Z,45.80
2018-06-28T04:47:45.306Z,44.73
2018-06-28T04:50:14.022Z,40.47
2018-06-28T04:52:42.763Z,35.77
2018-06-28T04:55:11.462Z,45.53
2018-06-28T04:57:40.558Z,40.73
2018-06-28T05:00:09.717Z,34.23
2018-06-28T05:02:38.910Z,43.47
2018-06-28T05:05:08.105Z,36.27
2018-06-28T05:07:37.217Z,48.20
2018-06-28T05:10:06.554Z,39.70
2018-06-28T05:12:35.813Z,38.23
2018-06-28T05:15:05.013Z,31.43
2018-06-28T05:17:34.218Z,35.83
2018-06-28T05:20:03.401Z,34.77
2018-06-28T05:22:32.639Z,59.40
2018-06-28T05:25:01.808Z,47.13
2018-06-28T05:27:31.007Z,43.87
2018-06-28T05:30:00.415Z,43.83
2018-06-28T05:32:29.369Z,35.73
2018-06-28T05:34:58.642Z,43.13
2018-06-28T05:37:28.005Z,32.27
2018-06-28T05:39:57.310Z,31.43
2018-06-28T05:42:26.422Z,32.00
2018-06-28T05:44:55.593Z,22.00
2018-06-28T05:47:24.827Z,32.53
2018-06-28T05:49:54.087Z,24.20
2018-06-28T05:52:23.328Z,21.70
2018-06-28T05:54:52.504Z,28.73
2018-06-28T05:57:21.685Z,25.23
2018-06-28T05:59:50.920Z,17.70
2018-06-28T06:02:20.077Z,18.50
2018-06-28T06:04:49.277Z,22.40
2018-06-28T06:07:18.478Z,19.20
2018-06-28T06:09:47.735Z,21.80
2018-06-28T06:12:16.930Z,22.70
2018-06-28T06:14:46.204Z,34.67
2018-06-28T06:17:15.382Z,13.93
2018-06-28T06:19:44.578Z,26.43
2018-06-28T06:22:13.775Z,25.23
2018-06-28T06:24:42.965Z,23.87
2018-06-28T06:27:12.178Z,22.37
2018-06-28T06:29:41.437Z,16.77
2018-06-28T06:32:10.627Z,21.00
2018-06-28T06:34:39.853Z,17.20
2018-06-28T06:37:09.092Z,17.43
2018-06-28T06:39:38.053Z,13.93
2018-06-28T06:42:07.256Z,15.20
2018-06-28T06:44:36.284Z,11.63
2018-06-28T06:47:05.333Z,18.50
2018-06-28T06:49:34.640Z,16.80
2018-06-28T06:52:03.899Z,15.27
2018-06-28T06:54:33.094Z,24.83
2018-06-28T06:57:02.261Z,16.50
2018-06-28T06:59:31.523Z,13.23
2018-06-28T07:02:00.657Z,25.13
2018-06-28T07:04:29.864Z,20.23
2018-06-28T07:06:59.045Z,15.90
2018-06-28T07:09:28.293Z,18.03
2018-06-28T07:11:57.315Z,16.80
2018-06-28T07:14:26.525Z,19.30
2018-06-28T07:16:55.727Z,11.53
2018-06-28T07:19:24.936Z,13.50
2018-06-28T07:21:54.008Z,15.77
2018-06-28T07:24:23.119Z,22.50
2018-06-28T07:26:52.427Z,17.77
2018-06-28T07:29:21.722Z,20.13
2018-06-28T07:31:51.050Z,15.10
2018-06-28T07:34:20.166Z,21.20
2018-06-28T07:36:49.447Z,19.90
2018-06-28T07:39:18.646Z,17.07
2018-06-28T07:41:47.822Z,19.30
2018-06-28T07:44:17.001Z,17.17
2018-06-28T07:46:46.237Z,23.07
2018-06-28T07:49:19.554Z,21.83
2018-06-28T07:51:49.034Z,13.70
2018-06-28T07:54:18.535Z,22.53
2018-06-28T07:56:47.536Z,33.40
2018-06-28T07:59:16.243Z,13.10
2018-06-28T08:01:44.950Z,15.17
2018-06-28T08:04:14.221Z,25.90
2018-06-28T08:06:42.918Z,15.43
2018-06-28T08:09:11.612Z,9.63
2018-06-28T08:11:40.752Z,9.83
2018-06-28T08:14:09.787Z,6.50
2018-06-28T08:16:39.039Z,11.60
2018-06-28T08:19:08.098Z,5.63
2018-06-28T08:21:37.217Z,11.00
2018-06-28T08:24:06.353Z,8.40
2018-06-28T08:26:35.562Z,6.10
2018-06-28T08:29:04.713Z,5.50
2018-06-28T08:31:33.957Z,9.00
2018-06-28T08:34:03.227Z,8.67
2018-06-28T08:36:32.681Z,6.97
2018-06-28T08:39:01.826Z,10.20
2018-06-28T08:41:31.086Z,9.00
2018-06-28T08:44:00.209Z,7.70
2018-06-28T08:46:29.530Z,16.13
2018-06-28T08:48:58.984Z,11.10
2018-06-28T08:51:28.121Z,7.73
2018-06-28T08:53:57.353Z,7.57
2018-06-28T08:56:26.424Z,6.93
2018-06-28T08:58:55.626Z,6.73
2018-06-28T09:01:24.967Z,9.30
2018-06-28T09:03:54.142Z,8.73
2018-06-28T09:06:23.222Z,6.90
2018-06-28T09:08:52.408Z,6.00
2018-06-28T09:11:21.613Z,10.00
2018-06-28T09:13:50.845Z,6.73
2018-06-28T09:16:20.014Z,11.03
2018-06-28T09:18:49.240Z,9.90
2018-06-28T09:21:18.573Z,13.30
2018-06-28T09:23:47.701Z,13.17
2018-06-28T09:26:16.847Z,7.70
2018-06-28T09:28:46.909Z,5.83
2018-06-28T09:31:16.229Z,5.60
2018-06-28T09:33:45.563Z,8.53
2018-06-28T09:36:14.571Z,7.83
2018-06-28T09:38:43.494Z,8.73
2018-06-28T09:41:12.810Z,17.83
2018-06-28T09:43:42.112Z,7.67
2018-06-28T09:46:11.551Z,22.73
2018-06-28T09:48:40.664Z,9.93
2018-06-28T09:51:09.872Z,9.40
2018-06-28T09:53:38.912Z,8.80
2018-06-28T09:56:08.341Z,11.30
2018-06-28T09:58:37.501Z,10.10
2018-06-28T10:01:06.807Z,11.60
2018-06-28T10:03:36.047Z,7.67
2018-06-28T10:06:05.186Z,14.17
2018-06-28T10:08:34.293Z,6.80
2018-06-28T10:11:03.503Z,6.60
2018-06-28T10:13:32.699Z,8.87
2018-06-28T10:16:01.933Z,14.33
2018-06-28T10:18:30.981Z,9.80
2018-06-28T10:21:00.042Z,11.73
2018-06-28T10:23:29.466Z,13.33
2018-06-28T10:25:58.499Z,11.00
2018-06-28T10:28:27.533Z,12.90
2018-06-28T10:30:56.519Z,10.03
2018-06-28T10:33:25.677Z,9.37
2018-06-28T10:35:54.875Z,8.63
2018-06-28T10:38:24.055Z,15.50
2018-06-28T10:40:53.345Z,11.10
2018-06-28T10:43:22.471Z,7.80
2018-06-28T10:45:51.643Z,13.90
2018-06-28T10:48:20.906Z,9.97
2018-06-28T10:50:50.058Z,10.40
2018-06-28T10:53:19.136Z,16.87
2018-06-28T10:55:48.283Z,11.87
2018-06-28T10:58:17.444Z,9.27
2018-06-28T11:00:46.675Z,9.43
2018-06-28T11:03:15.846Z,14.90
2018-06-28T11:05:45.059Z,15.90
2018-06-28T11:08:14.253Z,20.70
2018-06-28T11:10:43.453Z,13.00
2018-06-28T11:13:12.653Z,7.87
2018-06-28T11:15:41.958Z,9.23
2018-06-28T11:18:11.154Z,11.30
2018-06-28T11:20:40.326Z,13.50
2018-06-28T11:23:09.527Z,16.47
2018-06-28T11:25:38.666Z,19.63
2018-06-28T11:28:07.818Z,30.03
2018-06-28T11:30:37.126Z,27.67
2018-06-28T11:33:06.432Z,21.57
2018-06-28T11:35:35.722Z,25.00
2018-06-28T11:38:05.036Z,25.13
2018-06-28T11:40:34.230Z,27.60
2018-06-28T11:43:03.763Z,19.53
2018-06-28T11:45:32.939Z,21.27
2018-06-28T11:48:02.778Z,19.30
2018-06-28T11:50:32.165Z,19.87
2018-06-28T11:53:01.233Z,21.50
2018-06-28T11:55:30.325Z,21.83
2018-06-28T11:57:59.620Z,30.90
2018-06-28T12:00:29.065Z,57.67
2018-06-28T12:02:58.335Z,24.87
2018-06-28T12:05:27.400Z,33.20
2018-06-28T12:07:56.685Z,37.93
2018-06-28T12:10:25.985Z,29.50
2018-06-28T12:12:54.979Z,33.50
2018-06-28T12:15:24.125Z,36.60
2018-06-28T12:17:53.169Z,31.73
2018-06-28T12:20:21.985Z,26.77
2018-06-28T12:22:50.832Z,31.00
2018-06-28T12:25:19.678Z,25.90
2018-06-28T12:27:48.441Z,33.30
2018-06-28T12:30:17.241Z,30.90
2018-06-28T12:32:46.018Z,29.13
2018-06-28T12:35:14.907Z,25.03
2018-06-28T12:37:44.097Z,24.53
2018-06-28T12:40:12.859Z,32.50
2018-06-28T12:42:41.753Z,26.03
2018-06-28T12:45:10.490Z,18.77
2018-06-28T12:47:51.637Z,22.00
2018-06-28T12:50:20.501Z,23.07
2018-06-28T12:52:57.334Z,42.17
2018-06-28T12:55:26.768Z,32.90
2018-06-28T12:57:57.783Z,25.70
2018-06-28T13:00:26.520Z,22.67
2018-06-28T13:02:55.295Z,27.63
2018-06-28T13:05:24.069Z,30.60
2018-06-28T13:07:52.850Z,30.00
2018-06-28T13:10:21.619Z,25.70
2018-06-28T13:12:50.398Z,19.53
2018-06-28T13:15:19.153Z,16.80
2018-06-28T13:17:47.893Z,20.00
2018-06-28T13:20:19.983Z,21.00
2018-06-28T13:22:48.821Z,21.33
2018-06-28T13:25:17.590Z,23.20
2018-06-28T13:27:46.377Z,14.83
2018-06-28T13:30:15.839Z,15.53
2018-06-28T13:32:44.663Z,20.43
2018-06-28T13:35:13.584Z,17.87
2018-06-28T13:37:45.148Z,18.57
2018-06-28T13:40:19.142Z,13.17
2018-06-28T13:42:51.389Z,19.13
2018-06-28T13:45:23.703Z,17.87
2018-06-28T13:47:52.594Z,16.03
2018-06-28T13:50:21.385Z,21.97
2018-06-28T13:52:50.103Z,14.33
2018-06-28T13:55:18.903Z,15.90
2018-06-28T13:57:47.935Z,20.50
2018-06-28T14:00:16.974Z,11.00
2018-06-28T14:02:46.197Z,15.37
2018-06-28T14:05:15.419Z,11.13
2018-06-28T14:07:44.646Z,13.13
2018-06-28T14:10:14.209Z,17.63
2018-06-28T14:12:43.279Z,12.70
2018-06-28T14:15:12.475Z,16.20
2018-06-28T14:17:41.674Z,12.53
2018-06-28T14:20:11.102Z,11.17
2018-06-28T14:22:40.405Z,9.67
2018-06-28T14:25:09.851Z,9.90
2018-06-28T14:27:39.043Z,12.53
2018-06-28T14:30:09.763Z,8.70
2018-06-28T14:32:38.810Z,13.60
2018-06-28T14:35:08.211Z,9.03
2018-06-28T14:37:37.465Z,11.07
2018-06-28T14:40:06.882Z,10.00
2018-06-28T14:42:36.267Z,9.13
2018-06-28T14:45:05.477Z,13.13
2018-06-28T14:47:34.854Z,10.70
2018-06-28T14:50:04.079Z,12.70
2018-06-28T14:52:33.209Z,14.20
2018-06-28T14:55:02.672Z,9.27
2018-06-28T14:57:31.709Z,9.87
2018-06-28T15:00:00.727Z,10.83
2018-06-28T15:02:29.780Z,7.33
2018-06-28T15:04:59.095Z,10.43
2018-06-28T15:07:28.357Z,8.93
2018-06-28T15:09:57.465Z,11.33
2018-06-28T15:12:26.691Z,8.30
2018-06-28T15:14:55.906Z,8.67
2018-06-28T15:17:25.073Z,7.07
2018-06-28T15:19:54.231Z,7.67
2018-06-28T15:22:23.398Z,23.43
2018-06-28T15:24:52.634Z,11.20
2018-06-28T15:27:21.781Z,17.53
2018-06-28T15:29:51.085Z,8.23
2018-06-28T15:32:20.240Z,9.33
2018-06-28T15:34:49.373Z,11.27
2018-06-28T15:37:18.562Z,10.90
2018-06-28T15:39:47.921Z,9.20
2018-06-28T15:42:17.285Z,25.03
2018-06-28T15:44:46.421Z,20.13
2018-06-28T15:47:15.568Z,10.00
2018-06-28T15:49:44.913Z,22.80
2018-06-28T15:52:14.069Z,10.40
2018-06-28T15:54:43.261Z,8.13
2018-06-28T15:57:12.574Z,16.17
2018-06-28T15:59:41.776Z,7.23
2018-06-28T16:02:10.494Z,9.90
2018-06-28T16:04:39.216Z,9.23
2018-06-28T16:07:08.094Z,8.40
2018-06-28T16:09:36.861Z,8.07
2018-06-28T16:12:05.890Z,10.13
2018-06-28T16:14:34.643Z,13.80
2018-06-28T16:17:03.485Z,8.17
2018-06-28T16:19:32.222Z,4.10
2018-06-28T16:22:00.912Z,5.03
2018-06-28T16:24:29.602Z,3.20
2018-06-28T16:26:58.298Z,4.40
2018-06-28T16:29:27.164Z,7.80
2018-06-28T16:31:56.035Z,3.23
2018-06-28T16:34:24.733Z,3.00
2018-06-28T16:36:53.719Z,4.23
2018-06-28T16:39:22.450Z,2.63
2018-06-28T16:41:51.181Z,2.97
2018-06-28T16:44:19.890Z,6.93
2018-06-28T16:46:48.625Z,3.17
2018-06-28T16:49:17.362Z,4.23
2018-06-28T16:51:46.088Z,5.10
2018-06-28T16:54:14.809Z,5.50
2018-06-28T16:56:43.700Z,6.63
2018-06-28T16:59:12.438Z,3.60
2018-06-28T17:01:41.349Z,3.97
2018-06-28T17:04:10.075Z,9.53
2018-06-28T17:06:39.034Z,2.90
2018-06-28T17:09:09.075Z,12.23
2018-06-28T17:11:37.933Z,5.40
2018-06-28T17:14:07.370Z,8.00
2018-06-28T17:16:36.232Z,4.43
2018-06-28T17:19:05.530Z,8.00
2018-06-28T17:21:34.252Z,3.73
2018-06-28T17:24:02.977Z,6.43
2018-06-28T17:26:31.746Z,3.87
2018-06-28T17:29:00.488Z,4.73
2018-06-28T17:31:29.369Z,5.10
2018-06-28T17:33:58.117Z,8.23
2018-06-28T17:36:26.865Z,10.40
2018-06-28T17:38:55.643Z,18.50
2018-06-28T17:41:24.478Z,14.57
2018-06-28T17:43:53.355Z,11.30
2018-06-28T17:46:22.133Z,12.67
2018-06-28T17:48:50.887Z,13.97
2018-06-28T17:51:19.642Z,18.07
2018-06-28T17:53:48.790Z,8.63
2018-06-28T17:56:17.598Z,25.07
2018-06-28T17:58:46.323Z,10.03
2018-06-28T18:01:15.098Z,8.87
2018-06-28T18:03:43.845Z,9.33
2018-06-28T18:06:12.600Z,17.83
2018-06-28T18:08:41.378Z,11.67
2018-06-28T18:11:10.140Z,13.30
2018-06-28T18:13:38.900Z,15.63
2018-06-28T18:16:07.683Z,9.63
2018-06-28T18:18:36.436Z,18.87
2018-06-28T18:21:05.237Z,14.30
2018-06-28T18:23:34.042Z,16.57
2018-06-28T18:26:02.773Z,29.43
2018-06-28T18:28:31.522Z,15.97
2018-06-28T18:31:00.233Z,7.73
2018-06-28T18:33:28.982Z,31.43
2018-06-28T18:35:57.778Z,11.03
2018-06-28T18:38:26.623Z,21.70
2018-06-28T18:40:55.451Z,26.07
2018-06-28T18:43:24.222Z,28.47
2018-06-28T18:45:53.184Z,16.03
2018-06-28T18:48:22.132Z,22.73
2018-06-28T18:50:51.003Z,24.97
2018-06-28T18:53:19.714Z,29.40
2018-06-28T18:55:48.794Z,26.97
2018-06-28T18:58:17.527Z,22.90
2018-06-28T19:00:46.319Z,15.30
2018-06-28T19:03:15.050Z,34.83
2018-06-28T19:05:43.815Z,18.50
2018-06-28T19:08:12.548Z,17.57
2018-06-28T19:10:46.394Z,9.80
2018-06-28T19:13:15.173Z,19.00
2018-06-28T19:15:48.933Z,13.00
2018-06-28T19:18:17.798Z,16.07
2018-06-28T19:20:50.607Z,12.17
2018-06-28T19:23:51.188Z,11.80
2018-06-28T19:26:20.282Z,14.57
2018-06-28T19:28:49.637Z,27.13
2018-06-28T19:31:23.604Z,19.00
2018-06-28T19:33:52.385Z,17.93
2018-06-28T19:36:21.260Z,25.20
2018-06-28T19:38:55.053Z,23.00
2018-06-28T19:41:29.056Z,29.63
2018-06-28T19:43:57.743Z,21.60
2018-06-28T19:46:26.504Z,28.13
2018-06-28T19:48:55.249Z,27.90
2018-06-28T19:51:30.877Z,12.70
2018-06-28T19:54:02.559Z,10.20
2018-06-28T19:56:31.544Z,23.60
2018-06-28T19:59:00.296Z,12.03
2018-06-28T20:01:34.493Z,9.80
2018-06-28T20:04:08.366Z,23.87
2018-06-28T20:06:37.095Z,11.90
2018-06-28T20:09:08.451Z,22.53
2018-06-28T20:11:37.282Z,25.20
2018-06-28T20:14:11.229Z,18.83
2018-06-28T20:16:45.218Z,8.53
2018-06-28T20:19:19.070Z,14.33
2018-06-28T20:21:47.912Z,12.23
2018-06-28T20:24:16.681Z,25.67
2018-06-28T20:26:50.597Z,14.13
2018-06-28T20:29:24.529Z,13.17
2018-06-28T20:31:58.392Z,20.37
2018-06-28T20:34:27.186Z,16.60
2018-06-28T20:36:55.960Z,13.73
2018-06-28T20:39:24.779Z,22.30
2018-06-28T20:41:53.789Z,16.50
2018-06-28T20:44:22.733Z,24.00
2018-06-28T20:46:51.556Z,16.70
2018-06-28T20:49:20.444Z,18.87
2018-06-28T20:51:49.199Z,11.47
2018-06-28T20:54:18.400Z,18.23
2018-06-28T20:56:47.229Z,33.30
2018-06-28T20:59:16.047Z,29.30
2018-06-28T21:01:44.848Z,25.70
2018-06-28T21:04:13.630Z,12.07
2018-06-28T21:06:42.344Z,10.73
2018-06-28T21:09:11.081Z,19.57
2018-06-28T21:11:39.824Z,12.97
2018-06-28T21:14:08.579Z,17.87
2018-06-28T21:16:37.322Z,21.60
2018-06-28T21:19:06.124Z,21.03
2018-06-28T21:21:34.896Z,14.67
2018-06-28T21:24:03.631Z,21.27
2018-06-28T21:26:32.367Z,17.03
2018-06-28T21:29:01.090Z,21.70
2018-06-28T21:31:29.793Z,29.57
2018-06-28T21:33:58.531Z,15.27
2018-06-28T21:36:27.294Z,20.73
2018-06-28T21:38:56.011Z,28.70
2018-06-28T21:41:24.821Z,15.57
2018-06-28T21:43:53.853Z,25.43
2018-06-28T21:46:22.748Z,16.83
2018-06-28T21:48:51.541Z,13.37
2018-06-28T21:51:20.246Z,24.00
2018-06-28T21:53:48.997Z,16.93
2018-06-28T21:56:17.684Z,25.53
2018-06-28T21:58:46.402Z,19.53
2018-06-28T22:01:15.125Z,25.27
2018-06-28T22:03:43.834Z,7.60
2018-06-28T22:06:12.560Z,4.73
2018-06-28T22:08:41.278Z,13.73
2018-06-28T22:11:10.017Z,10.40
2018-06-28T22:13:38.697Z,9.77
2018-06-28T22:16:07.431Z,5.67
2018-06-28T22:18:36.149Z,4.80
2018-06-28T22:21:04.861Z,10.00
2018-06-28T22:23:33.611Z,9.63
2018-06-28T22:26:02.325Z,9.60
2018-06-28T22:28:31.075Z,12.00
2018-06-28T22:30:59.800Z,12.10
2018-06-28T22:33:28.501Z,4.30
2018-06-28T22:35:57.239Z,19.37
2018-06-28T22:38:25.959Z,5.10
2018-06-28T22:40:54.698Z,17.90
2018-06-28T22:43:23.447Z,5.00
2018-06-28T22:45:52.173Z,13.83
2018-06-28T22:48:20.908Z,18.67
2018-06-28T22:50:49.606Z,6.93
2018-06-28T22:53:18.301Z,16.07
2018-06-28T22:55:47.078Z,18.70
2018-06-28T22:58:15.776Z,7.30
2018-06-28T23:00:44.487Z,20.33
2018-06-28T23:03:13.234Z,10.50
2018-06-28T23:05:41.979Z,20.30
2018-06-28T23:08:10.916Z,19.80
2018-06-28T23:10:39.625Z,11.97
2018-06-28T23:13:08.337Z,21.20
2018-06-28T23:15:37.029Z,7.80
2018-06-28T23:18:05.839Z,22.33
2018-06-28T23:20:34.548Z,19.93
2018-06-28T23:23:03.254Z,25.77
2018-06-28T23:25:32.082Z,7.10
2018-06-28T23:28:00.833Z,10.30
2018-06-28T23:30:29.530Z,7.30
2018-06-28T23:32:58.288Z,28.60
2018-06-28T23:35:27.456Z,16.80
2018-06-28T23:37:56.201Z,18.67
2018-06-28T23:40:24.917Z,12.30
2018-06-28T23:42:53.629Z,6.37
2018-06-28T23:45:22.336Z,8.27
2018-06-28T23:47:51.079Z,6.17
2018-06-28T23:50:19.849Z,6.60
2018-06-28T23:52:48.547Z,9.90
2018-06-28T23:55:17.259Z,19.27
2018-06-28T23:57:45.999Z,12.87
